Time;durP1;ratioP1;P1;durP2;ratioP2;P2;SDS_P1;SDS_P2;PMS_P1;PMS_P2;Temp;Humidity;BMP_temperature;BMP_pressure;BME280_temperature;BME280_humidity;BME280_pressure;Samples;Min_cycle;Max_cycle;Signal;HPM_P1;HPM_P2
2023/11/12 00:00:03;;;;;;;27.23;19.05;;;6.00;99.90;;;;;;5026368;28;20041;-76
2023/11/12 00:02:30;;;;;;;21.52;18.20;;;6.00;99.90;;;;;;5027974;28;20529;-77
2023/11/12 00:04:57;;;;;;;22.70;17.38;;;6.00;99.90;;;;;;5024152;28;20111;-78
2023/11/12 00:07:24;;;;;;;24.08;18.40;;;6.00;99.90;;;;;;5008928;28;20044;-77
2023/11/12 00:09:51;;;;;;;26.10;19.42;;;6.00;99.90;;;;;;5035194;28;20122;-77
2023/11/12 00:12:19;;;;;;;21.88;19.27;;;6.00;99.90;;;;;;5013441;28;20609;-77
2023/11/12 00:14:46;;;;;;;24.55;18.48;;;6.10;99.90;;;;;;5017921;28;20126;-76
2023/11/12 00:17:13;;;;;;;26.25;19.38;;;6.10;99.90;;;;;;5026313;28;20049;-77
2023/11/12 00:19:40;;;;;;;24.30;18.75;;;6.10;99.90;;;;;;5033279;28;20128;-77
2023/11/12 00:22:08;;;;;;;24.42;18.20;;;6.10;99.90;;;;;;5023170;28;20045;-76
2023/11/12 00:24:34;;;;;;;21.23;18.50;;;6.10;99.90;;;;;;5032815;28;20041;-77
2023/11/12 00:27:01;;;;;;;24.38;17.67;;;6.10;99.90;;;;;;5012963;28;20047;-76
2023/11/12 00:29:28;;;;;;;21.42;17.50;;;6.10;99.90;;;;;;5033341;28;20045;-76
2023/11/12 00:31:55;;;;;;;21.75;18.20;;;6.10;99.90;;;;;;5029059;28;20519;-77
2023/11/12 00:34:23;;;;;;;22.23;18.60;;;6.10;99.90;;;;;;5026343;28;20053;-77
2023/11/12 00:36:51;;;;;;;22.45;18.83;;;6.10;99.90;;;;;;5029171;28;20640;-76
2023/11/12 00:39:17;;;;;;;26.85;19.45;;;6.20;99.90;;;;;;5016376;28;20053;-76
2023/11/12 00:41:44;;;;;;;24.73;19.73;;;6.10;99.90;;;;;;5024350;28;20041;-76
2023/11/12 00:44:11;;;;;;;21.98;19.00;;;6.30;99.90;;;;;;5030057;28;20045;-76
2023/11/12 00:46:40;;;;;;;24.15;19.92;;;6.20;99.90;;;;;;5024863;28;20038;-77
2023/11/12 00:49:07;;;;;;;22.95;18.08;;;6.20;99.90;;;;;;5011827;28;20106;-76
2023/11/12 00:51:36;;;;;;;21.10;18.42;;;6.10;99.90;;;;;;5021005;28;20125;-77
2023/11/12 00:54:03;;;;;;;26.10;18.73;;;6.20;99.90;;;;;;5031366;28;20042;-76
2023/11/12 00:56:30;;;;;;;21.23;18.23;;;6.10;99.90;;;;;;5030770;28;20057;-77
2023/11/12 00:58:56;;;;;;;20.45;18.35;;;6.10;99.90;;;;;;5026785;28;20044;-76
2023/11/12 01:01:23;;;;;;;21.20;18.85;;;6.10;99.90;;;;;;5030817;28;20779;-77
2023/11/12 01:03:50;;;;;;;23.58;19.10;;;6.10;99.90;;;;;;5027969;28;20088;-77
2023/11/12 01:06:17;;;;;;;24.23;19.10;;;6.00;99.90;;;;;;5020954;28;20581;-77
2023/11/12 01:08:45;;;;;;;20.83;17.55;;;6.00;99.90;;;;;;5009514;28;20050;-77
2023/11/12 01:11:13;;;;;;;19.20;17.15;;;6.10;99.90;;;;;;5015047;28;20095;-76
2023/11/12 01:13:40;;;;;;;21.05;18.95;;;6.10;99.90;;;;;;5029367;28;20041;-77
2023/11/12 01:16:08;;;;;;;20.75;18.65;;;6.10;99.90;;;;;;5024015;28;20048;-76
2023/11/12 01:18:38;;;;;;;20.23;18.20;;;6.00;99.90;;;;;;5034646;28;20080;-76
2023/11/12 01:21:05;;;;;;;25.58;19.45;;;6.00;99.90;;;;;;5015875;28;20131;-76
2023/11/12 01:23:32;;;;;;;21.27;19.02;;;6.00;99.90;;;;;;5033904;28;20064;-77
2023/11/12 01:25:59;;;;;;;22.38;17.65;;;6.00;99.90;;;;;;5030469;28;20041;-77
2023/11/12 01:28:29;;;;;;;21.27;19.17;;;6.00;99.90;;;;;;5030663;28;20580;-76
2023/11/12 01:30:56;;;;;;;20.45;17.70;;;6.00;99.90;;;;;;5032875;28;20753;-77
2023/11/12 01:33:23;;;;;;;20.13;18.00;;;6.00;99.90;;;;;;5024944;28;20624;-77
2023/11/12 01:35:52;;;;;;;22.23;18.73;;;6.00;99.90;;;;;;5026642;28;20084;-77
2023/11/12 01:38:20;;;;;;;21.95;19.75;;;5.90;99.90;;;;;;5030412;28;20562;-77
2023/11/12 01:40:47;;;;;;;23.10;20.60;;;5.90;99.90;;;;;;5034105;28;20037;-76
2023/11/12 01:43:19;;;;;;;23.05;20.83;;;5.90;99.90;;;;;;5018026;28;20052;-76
2023/11/12 01:45:46;;;;;;;22.50;20.25;;;5.90;99.90;;;;;;5023663;28;20132;-77
2023/11/12 01:48:14;;;;;;;23.00;20.80;;;5.90;99.90;;;;;;5033675;28;20075;-77
2023/11/12 01:50:44;;;;;;;21.98;19.98;;;5.80;99.90;;;;;;5032857;28;20137;-76
2023/11/12 01:53:14;;;;;;;21.95;19.83;;;5.80;99.90;;;;;;5029327;28;20048;-76
2023/11/12 01:55:41;;;;;;;20.98;19.10;;;5.80;99.90;;;;;;5034446;28;20044;-76
2023/11/12 01:58:11;;;;;;;23.77;21.45;;;5.80;99.90;;;;;;5018861;28;20060;-77
2023/11/12 02:00:41;;;;;;;21.52;19.40;;;5.70;99.90;;;;;;5037049;28;20048;-77
2023/11/12 02:03:13;;;;;;;23.38;20.92;;;5.60;99.90;;;;;;5018756;28;20732;-77
2023/11/12 02:05:41;;;;;;;24.75;21.42;;;5.60;99.90;;;;;;5031121;28;20116;-78
2023/11/12 02:08:08;;;;;;;22.90;20.48;;;5.60;99.90;;;;;;5033134;28;20037;-77
2023/11/12 02:10:36;;;;;;;23.95;21.42;;;5.60;99.90;;;;;;5031475;28;20037;-76
2023/11/12 02:13:04;;;;;;;27.70;21.58;;;5.70;99.90;;;;;;5012617;28;20038;-78
2023/11/12 02:15:32;;;;;;;27.00;21.88;;;5.70;99.90;;;;;;5025223;28;20057;-77
2023/11/12 02:17:59;;;;;;;24.00;21.05;;;5.70;99.90;;;;;;5031853;28;20056;-77
2023/11/12 02:20:29;;;;;;;24.02;21.55;;;5.70;99.90;;;;;;5027753;28;20043;-77
2023/11/12 02:22:56;;;;;;;24.27;21.80;;;5.70;99.90;;;;;;5033491;28;20045;-77
2023/11/12 02:25:23;;;;;;;34.55;21.92;;;5.80;99.90;;;;;;5025914;28;20748;-77
2023/11/12 02:27:50;;;;;;;23.23;20.92;;;5.70;99.90;;;;;;5032378;28;20153;-77
2023/11/12 02:30:18;;;;;;;23.65;21.25;;;5.80;99.90;;;;;;5030507;28;20045;-77
2023/11/12 02:32:47;;;;;;;23.60;20.35;;;5.80;99.90;;;;;;5007150;28;20050;-77
2023/11/12 02:35:14;;;;;;;24.63;20.90;;;5.80;99.90;;;;;;5032247;28;20120;-77
2023/11/12 02:37:41;;;;;;;23.80;21.33;;;5.80;99.90;;;;;;5019916;28;20109;-77
2023/11/12 02:40:09;;;;;;;23.48;21.05;;;5.80;99.90;;;;;;5032500;28;20045;-76
2023/11/12 02:42:37;;;;;;;25.58;22.83;;;5.80;99.90;;;;;;5032192;28;20051;-75
2023/11/12 02:45:10;;;;;;;25.42;22.27;;;5.80;99.90;;;;;;5013054;28;20168;-76
2023/11/12 02:47:37;;;;;;;29.67;22.25;;;5.80;99.90;;;;;;5029484;28;20075;-76
2023/11/12 02:50:33;;;;;;;26.45;21.80;;;5.80;99.90;;;;;;5029884;28;20080;-76
2023/11/12 02:53:01;;;;;;;24.27;21.77;;;5.80;99.90;;;;;;5031696;28;20069;-76
2023/11/12 02:55:29;;;;;;;22.80;20.60;;;5.90;99.90;;;;;;5026946;28;20712;-76
2023/11/12 02:57:57;;;;;;;24.60;21.00;;;5.90;99.90;;;;;;5031005;28;20041;-77
2023/11/12 03:00:28;;;;;;;22.33;20.20;;;5.90;99.90;;;;;;5013921;28;20395;-77
2023/11/12 03:02:57;;;;;;;24.67;21.48;;;5.90;99.90;;;;;;5010273;28;20120;-77
2023/11/12 03:05:26;;;;;;;23.17;20.75;;;6.00;99.90;;;;;;5024701;28;20044;-75
2023/11/12 03:07:54;;;;;;;22.50;20.20;;;5.90;99.90;;;;;;5031476;28;20728;-76
2023/11/12 03:10:21;;;;;;;21.98;19.77;;;5.90;99.90;;;;;;5023046;28;20053;-77
2023/11/12 03:12:48;;;;;;;23.77;21.52;;;5.90;99.90;;;;;;5026341;28;20474;-76
2023/11/12 03:15:15;;;;;;;24.35;21.95;;;6.00;99.90;;;;;;5027696;28;20064;-76
2023/11/12 03:17:42;;;;;;;22.95;20.65;;;6.00;99.90;;;;;;5029476;28;20038;-76
2023/11/12 03:20:10;;;;;;;21.25;19.42;;;6.00;99.90;;;;;;5012335;28;20223;-76
2023/11/12 03:22:37;;;;;;;23.08;20.85;;;6.00;99.90;;;;;;5022653;28;20538;-76
2023/11/12 03:25:05;;;;;;;23.55;20.13;;;6.00;99.90;;;;;;5034420;28;20045;-76
2023/11/12 03:27:33;;;;;;;23.15;21.10;;;6.00;99.90;;;;;;5022063;28;20056;-77
2023/11/12 03:29:59;;;;;;;22.75;20.85;;;6.00;99.90;;;;;;5029074;28;20045;-77
2023/11/12 03:32:26;;;;;;;23.17;20.98;;;6.00;99.90;;;;;;5012584;28;20037;-76
2023/11/12 03:34:54;;;;;;;23.63;21.40;;;6.10;99.90;;;;;;5033864;28;20037;-76
2023/11/12 03:37:22;;;;;;;27.45;24.55;;;6.00;99.90;;;;;;5030612;28;20045;-76
2023/11/12 03:39:50;;;;;;;30.73;25.38;;;6.10;99.90;;;;;;5029991;28;20057;-76
2023/11/12 03:42:17;;;;;;;29.95;24.80;;;6.10;99.90;;;;;;5029514;28;20067;-76
2023/11/12 03:44:46;;;;;;;28.55;25.33;;;6.10;99.90;;;;;;5025466;28;20052;-75
2023/11/12 03:47:13;;;;;;;28.67;24.85;;;6.00;99.90;;;;;;5029679;28;20398;-76
2023/11/12 03:49:41;;;;;;;28.30;25.38;;;6.00;99.90;;;;;;5030884;28;20867;-76
2023/11/12 03:52:09;;;;;;;34.47;28.30;;;6.00;99.90;;;;;;5017386;28;20041;-76
2023/11/12 03:54:36;;;;;;;41.63;32.67;;;5.90;99.90;;;;;;5026091;28;20119;-75
2023/11/12 03:57:04;;;;;;;34.17;29.63;;;6.00;99.90;;;;;;5028034;28;20518;-75
2023/11/12 03:59:31;;;;;;;39.28;33.22;;;6.00;99.90;;;;;;5023044;28;20056;-75
2023/11/12 04:01:57;;;;;;;48.17;35.80;;;5.90;99.90;;;;;;5030816;28;20045;-75
2023/11/12 04:04:24;;;;;;;44.25;30.98;;;5.90;99.90;;;;;;5026828;28;20041;-75
2023/11/12 04:06:51;;;;;;;44.65;33.53;;;5.90;99.90;;;;;;5026081;28;20752;-75
2023/11/12 04:09:18;;;;;;;32.42;29.13;;;5.90;99.90;;;;;;5022439;28;20546;-75
2023/11/12 04:11:45;;;;;;;45.17;31.40;;;5.90;99.90;;;;;;5026059;28;20034;-75
2023/11/12 04:14:12;;;;;;;31.13;28.13;;;5.80;99.90;;;;;;5026211;28;20045;-76
2023/11/12 04:16:40;;;;;;;31.92;28.33;;;5.80;99.90;;;;;;5021595;28;20140;-75
2023/11/12 04:19:07;;;;;;;42.92;32.63;;;5.80;99.90;;;;;;5029965;28;20037;-75
2023/11/12 04:21:35;;;;;;;35.33;31.55;;;5.70;99.90;;;;;;5027516;28;20048;-75
2023/11/12 04:24:02;;;;;;;37.38;29.73;;;5.60;99.90;;;;;;5029715;28;20045;-76
2023/11/12 04:26:31;;;;;;;31.30;28.00;;;5.50;99.90;;;;;;5019610;28;20037;-75
2023/11/12 04:28:58;;;;;;;31.98;28.02;;;5.40;99.90;;;;;;5030699;28;20041;-76
2023/11/12 04:31:25;;;;;;;30.88;27.63;;;5.40;99.90;;;;;;5026982;28;20537;-76
2023/11/12 04:33:53;;;;;;;34.40;29.73;;;5.40;99.90;;;;;;5026605;28;20046;-75
2023/11/12 04:36:20;;;;;;;31.30;28.02;;;5.40;99.90;;;;;;5028051;28;20691;-75
2023/11/12 04:38:47;;;;;;;33.05;29.45;;;5.40;99.90;;;;;;5012507;28;20044;-76
2023/11/12 04:41:14;;;;;;;32.92;29.02;;;5.40;99.90;;;;;;5011864;28;20125;-75
2023/11/12 04:43:41;;;;;;;40.42;31.63;;;5.40;99.90;;;;;;5023693;28;20160;-76
2023/11/12 04:46:07;;;;;;;42.42;33.85;;;5.40;99.90;;;;;;5027525;28;20040;-75
2023/11/12 04:48:34;;;;;;;72.78;45.58;;;5.40;99.90;;;;;;5023123;28;20069;-75
2023/11/12 04:51:01;;;;;;;64.55;41.65;;;5.40;99.90;;;;;;5011070;28;20045;-75
2023/11/12 04:53:28;;;;;;;41.38;32.17;;;5.40;99.90;;;;;;5024757;28;20045;-75
2023/11/12 04:55:55;;;;;;;53.30;38.30;;;5.40;99.90;;;;;;5031079;28;20124;-75
2023/11/12 04:58:23;;;;;;;44.10;34.55;;;5.40;99.90;;;;;;5028264;28;20033;-76
2023/11/12 05:00:52;;;;;;;57.50;43.88;;;5.40;99.90;;;;;;5025730;28;20064;-76
2023/11/12 05:03:20;;;;;;;58.47;42.92;;;5.40;99.90;;;;;;5024544;28;20037;-75
2023/11/12 05:05:47;;;;;;;36.30;29.88;;;5.40;99.90;;;;;;5025706;28;20045;-75
2023/11/12 05:08:14;;;;;;;33.80;29.38;;;5.40;99.90;;;;;;5031271;28;20107;-75
2023/11/12 05:10:40;;;;;;;32.47;29.13;;;5.40;99.90;;;;;;5033651;28;20694;-75
2023/11/12 05:13:13;;;;;;;31.85;27.77;;;5.30;99.90;;;;;;5034101;28;20040;-75
2023/11/12 05:15:41;;;;;;;32.90;29.42;;;5.30;99.90;;;;;;5032331;28;20908;-75
2023/11/12 05:18:08;;;;;;;39.55;28.85;;;5.20;99.90;;;;;;5035670;28;20507;-76
2023/11/12 05:20:35;;;;;;;32.15;28.73;;;5.20;99.90;;;;;;5026882;28;20546;-75
2023/11/12 05:23:02;;;;;;;31.00;27.90;;;5.10;99.90;;;;;;5021327;28;20045;-75
2023/11/12 05:25:29;;;;;;;35.10;28.23;;;5.00;99.90;;;;;;5032259;28;20136;-75
2023/11/12 05:27:56;;;;;;;30.90;27.58;;;5.00;99.90;;;;;;5033870;28;20120;-75
2023/11/12 05:30:23;;;;;;;31.30;27.85;;;4.90;99.90;;;;;;5034763;28;20049;-75
2023/11/12 05:32:51;;;;;;;32.50;28.23;;;4.90;99.90;;;;;;5035490;28;20055;-75
2023/11/12 05:35:19;;;;;;;30.63;27.33;;;4.90;99.90;;;;;;5031201;28;20135;-75
2023/11/12 05:37:49;;;;;;;33.15;28.70;;;4.90;99.90;;;;;;5035195;28;20049;-75
2023/11/12 05:40:16;;;;;;;31.95;28.55;;;4.90;99.90;;;;;;5038720;28;20045;-76
2023/11/12 05:42:43;;;;;;;28.80;25.65;;;5.00;99.90;;;;;;5036164;28;20063;-75
2023/11/12 05:45:10;;;;;;;34.38;28.05;;;5.00;99.90;;;;;;5038196;28;20037;-75
2023/11/12 05:47:37;;;;;;;30.10;26.83;;;5.00;99.90;;;;;;5033627;28;20050;-78
2023/11/12 05:50:04;;;;;;;30.88;27.58;;;5.00;99.90;;;;;;5032625;28;20052;-75
2023/11/12 05:52:31;;;;;;;31.60;28.25;;;5.00;99.90;;;;;;5031789;28;20036;-75
2023/11/12 05:54:58;;;;;;;31.33;27.40;;;5.10;99.90;;;;;;5032507;28;20045;-75
2023/11/12 05:57:26;;;;;;;31.25;27.95;;;5.00;99.90;;;;;;5030100;28;20051;-76
2023/11/12 05:59:56;;;;;;;33.45;28.50;;;5.10;99.90;;;;;;5021354;28;20037;-75
2023/11/12 06:02:23;;;;;;;30.08;27.00;;;5.10;99.90;;;;;;5029731;28;20041;-76
2023/11/12 06:04:50;;;;;;;33.50;28.65;;;5.10;99.90;;;;;;5014325;28;20506;-75
2023/11/12 06:07:17;;;;;;;31.77;28.70;;;5.10;99.90;;;;;;5034471;28;20079;-75
2023/11/12 06:09:44;;;;;;;33.90;30.30;;;5.00;99.90;;;;;;5032166;28;20229;-76
2023/11/12 06:12:11;;;;;;;36.15;30.35;;;5.10;99.90;;;;;;5038844;28;20121;-75
2023/11/12 06:14:38;;;;;;;33.90;30.17;;;5.10;99.90;;;;;;5032414;28;20699;-75
2023/11/12 06:17:04;;;;;;;33.20;29.83;;;5.10;99.90;;;;;;5031722;28;20052;-76
2023/11/12 06:19:31;;;;;;;33.78;30.40;;;5.00;99.90;;;;;;5033683;28;20041;-76
2023/11/12 06:22:00;;;;;;;32.80;29.25;;;5.00;99.90;;;;;;5023360;28;20523;-75
2023/11/12 06:24:27;;;;;;;32.15;28.90;;;5.00;99.90;;;;;;5031806;28;20040;-76
2023/11/12 06:26:54;;;;;;;31.23;28.02;;;5.00;99.90;;;;;;5031298;28;20142;-76
2023/11/12 06:29:21;;;;;;;31.98;28.67;;;5.00;99.90;;;;;;5036366;28;20045;-75
2023/11/12 06:31:48;;;;;;;31.50;27.77;;;5.10;99.90;;;;;;5030153;28;20045;-76
2023/11/12 06:34:14;;;;;;;34.33;29.45;;;5.10;99.90;;;;;;5031024;28;20033;-75
2023/11/12 06:36:41;;;;;;;33.10;29.77;;;5.00;99.90;;;;;;5026160;28;20044;-76
2023/11/12 06:39:13;;;;;;;30.42;27.58;;;5.00;99.90;;;;;;5034227;28;20065;-75
2023/11/12 06:41:43;;;;;;;32.33;29.15;;;5.00;99.90;;;;;;5023942;28;20053;-75
2023/11/12 06:44:11;;;;;;;33.03;29.63;;;5.10;99.90;;;;;;5037404;28;20053;-75
2023/11/12 06:46:45;;;;;;;33.40;30.20;;;5.00;99.90;;;;;;5030591;28;20186;-75
2023/11/12 06:49:13;;;;;;;30.85;27.85;;;5.00;99.90;;;;;;5035354;28;20072;-75
2023/11/12 06:51:40;;;;;;;29.80;26.83;;;5.00;99.90;;;;;;5028051;28;20064;-75
2023/11/12 06:54:08;;;;;;;32.42;29.23;;;5.00;99.90;;;;;;5034786;28;20040;-75
2023/11/12 06:56:35;;;;;;;30.88;27.60;;;5.00;99.90;;;;;;5032011;28;20527;-77
2023/11/12 06:59:02;;;;;;;28.65;25.85;;;5.00;99.90;;;;;;5033344;28;20040;-75
2023/11/12 07:01:29;;;;;;;28.60;25.55;;;5.00;99.90;;;;;;5026196;28;20562;-75
2023/11/12 07:03:56;;;;;;;29.40;26.55;;;5.00;99.90;;;;;;5029070;28;20068;-75
2023/11/12 07:06:24;;;;;;;30.35;26.90;;;4.90;99.90;;;;;;5012874;28;20052;-75
2023/11/12 07:08:50;;;;;;;32.53;29.48;;;4.90;99.90;;;;;;5027204;28;21708;-75
2023/11/12 07:11:17;;;;;;;30.73;27.50;;;5.00;99.90;;;;;;5031095;28;20513;-75
2023/11/12 07:13:44;;;;;;;29.35;26.73;;;5.00;99.90;;;;;;5025977;28;20099;-75
2023/11/12 07:16:16;;;;;;;29.13;26.48;;;5.00;99.90;;;;;;5031709;28;20041;-76
2023/11/12 07:18:44;;;;;;;30.33;27.50;;;5.00;99.90;;;;;;5026231;28;20650;-75
2023/11/12 07:21:30;;;;;;;28.80;25.90;;;5.00;99.90;;;;;;5033469;28;20044;-75
2023/11/12 07:23:59;;;;;;;30.13;26.83;;;5.10;99.90;;;;;;5034243;28;20049;-75
2023/11/12 07:26:27;;;;;;;32.85;30.20;;;5.20;99.90;;;;;;5032597;28;20124;-75
2023/11/12 07:28:54;;;;;;;33.03;29.90;;;5.10;99.90;;;;;;5030636;28;20056;-75
2023/11/12 07:31:23;;;;;;;34.20;31.05;;;5.00;99.90;;;;;;5036699;28;20455;-75
2023/11/12 07:33:51;;;;;;;37.10;33.65;;;5.00;99.90;;;;;;5009263;28;20060;-75
2023/11/12 07:36:21;;;;;;;35.95;32.97;;;4.90;99.90;;;;;;5035553;28;20093;-75
2023/11/12 07:38:48;;;;;;;35.72;32.53;;;5.00;99.90;;;;;;5012473;28;20496;-75
2023/11/12 07:41:15;;;;;;;34.28;31.27;;;5.10;99.90;;;;;;5028865;28;21020;-75
2023/11/12 07:43:42;;;;;;;34.85;31.70;;;5.20;99.90;;;;;;5030712;28;20494;-75
2023/11/12 07:46:09;;;;;;;32.42;29.90;;;5.20;99.90;;;;;;5013170;28;20041;-74
2023/11/12 07:48:36;;;;;;;31.73;29.13;;;5.20;99.90;;;;;;5012639;28;20444;-75
2023/11/12 07:51:03;;;;;;;33.45;30.48;;;5.20;99.90;;;;;;5025865;28;20042;-74
2023/11/12 07:53:30;;;;;;;31.45;28.98;;;5.10;99.90;;;;;;5027702;28;20037;-74
2023/11/12 07:55:57;;;;;;;32.10;29.48;;;5.20;99.90;;;;;;5028041;28;20041;-74
2023/11/12 07:58:24;;;;;;;34.67;31.40;;;5.30;99.90;;;;;;5033293;28;20056;-75
2023/11/12 08:00:51;;;;;;;35.50;31.98;;;5.20;99.90;;;;;;5027305;28;20573;-75
2023/11/12 08:03:18;;;;;;;33.08;30.38;;;5.10;99.90;;;;;;5028279;28;20044;-75
2023/11/12 08:05:48;;;;;;;32.53;29.90;;;5.10;99.90;;;;;;5031652;28;20499;-75
2023/11/12 08:08:15;;;;;;;33.55;30.98;;;5.10;99.90;;;;;;5033762;28;20048;-75
2023/11/12 08:10:42;;;;;;;35.10;32.25;;;5.10;99.90;;;;;;5029314;28;20052;-74
2023/11/12 08:13:09;;;;;;;31.77;29.27;;;5.10;99.90;;;;;;5030326;28;20604;-74
2023/11/12 08:15:36;;;;;;;32.53;29.80;;;5.20;99.90;;;;;;5008402;28;20045;-74
2023/11/12 08:18:05;;;;;;;30.95;28.42;;;5.30;99.90;;;;;;5016867;28;20033;-75
2023/11/12 08:20:35;;;;;;;31.73;29.42;;;5.50;99.90;;;;;;5012303;28;20041;-74
2023/11/12 08:23:03;;;;;;;31.30;28.90;;;5.60;99.90;;;;;;5018462;28;20710;-74
2023/11/12 08:25:30;;;;;;;30.23;28.05;;;5.80;99.90;;;;;;5030929;28;20037;-74
2023/11/12 08:27:57;;;;;;;32.83;30.38;;;5.80;99.90;;;;;;5034272;28;20506;-74
2023/11/12 08:30:24;;;;;;;32.42;29.92;;;5.90;99.90;;;;;;5009432;28;20051;-74
2023/11/12 08:32:51;;;;;;;32.92;29.95;;;5.90;99.90;;;;;;5024998;28;20048;-75
2023/11/12 08:35:18;;;;;;;32.72;30.52;;;5.90;99.90;;;;;;5031126;28;20075;-75
2023/11/12 08:37:45;;;;;;;34.10;31.35;;;5.90;99.90;;;;;;5026774;28;20037;-74
2023/11/12 08:40:12;;;;;;;31.20;28.88;;;6.00;99.90;;;;;;5031518;28;20041;-74
2023/11/12 08:42:39;;;;;;;30.05;27.85;;;6.10;99.90;;;;;;5026160;28;20657;-75
2023/11/12 08:45:06;;;;;;;30.98;28.58;;;6.10;99.90;;;;;;5027906;28;20045;-74
2023/11/12 08:47:36;;;;;;;33.00;30.30;;;6.10;99.90;;;;;;5027134;28;20041;-75
2023/11/12 08:50:04;;;;;;;32.00;29.48;;;6.00;99.90;;;;;;5025088;28;20168;-74
2023/11/12 08:52:31;;;;;;;37.92;35.13;;;6.20;99.90;;;;;;5027792;28;20052;-76
2023/11/12 08:54:57;;;;;;;35.47;32.83;;;6.20;99.90;;;;;;5011459;28;20115;-76
2023/11/12 08:57:24;;;;;;;36.25;33.38;;;6.20;99.90;;;;;;5027270;28;20052;-76
2023/11/12 08:59:53;;;;;;;33.00;30.08;;;6.30;99.90;;;;;;5030856;28;20045;-76
2023/11/12 09:02:20;;;;;;;36.15;33.55;;;6.50;99.90;;;;;;5015676;28;20041;-74
2023/11/12 09:04:46;;;;;;;35.75;33.08;;;6.80;99.90;;;;;;5024936;28;20049;-74
2023/11/12 09:07:14;;;;;;;43.47;39.90;;;7.20;99.90;;;;;;5027992;28;20128;-76
2023/11/12 09:09:41;;;;;;;43.03;39.72;;;7.30;99.90;;;;;;5026462;28;20037;-76
2023/11/12 09:12:07;;;;;;;40.85;37.63;;;7.40;99.90;;;;;;5026293;28;20052;-75
2023/11/12 09:14:35;;;;;;;41.03;38.38;;;7.50;99.90;;;;;;5022130;28;20045;-75
2023/11/12 09:17:03;;;;;;;38.28;35.72;;;7.50;99.90;;;;;;5013953;28;20068;-75
2023/11/12 09:19:30;;;;;;;38.85;36.15;;;7.50;99.90;;;;;;5029960;28;20045;-75
2023/11/12 09:21:57;;;;;;;43.67;40.38;;;7.50;99.90;;;;;;5027362;28;20047;-77
2023/11/12 09:24:24;;;;;;;40.05;37.30;;;7.60;99.90;;;;;;5026976;28;20053;-77
2023/11/12 09:26:51;;;;;;;42.80;39.90;;;7.60;99.90;;;;;;5013989;28;20049;-77
2023/11/12 09:29:18;;;;;;;41.13;38.22;;;7.60;99.90;;;;;;5029757;28;20045;-77
2023/11/12 09:31:46;;;;;;;41.55;38.38;;;7.60;99.90;;;;;;5022108;28;20084;-77
2023/11/12 09:34:13;;;;;;;38.28;35.90;;;7.70;99.90;;;;;;5026690;28;20049;-75
2023/11/12 09:36:40;;;;;;;38.75;36.13;;;7.70;99.90;;;;;;5022837;28;20060;-75
2023/11/12 09:39:07;;;;;;;36.85;34.35;;;7.50;99.90;;;;;;5029744;28;20102;-75
2023/11/12 09:41:37;;;;;;;37.85;35.20;;;7.60;99.90;;;;;;5027070;28;20060;-76
2023/11/12 09:44:07;;;;;;;40.30;36.92;;;7.70;99.90;;;;;;5045785;28;20048;-76
2023/11/12 09:46:35;;;;;;;37.97;35.58;;;7.60;99.90;;;;;;5014476;28;20146;-76
2023/11/12 09:49:04;;;;;;;37.92;35.25;;;7.60;99.90;;;;;;5024633;28;20450;-76
2023/11/12 09:51:35;;;;;;;37.63;34.97;;;7.70;99.90;;;;;;5027121;28;20211;-76
2023/11/12 09:54:03;;;;;;;39.22;36.63;;;7.70;99.90;;;;;;5027288;28;20073;-76
2023/11/12 09:56:30;;;;;;;36.67;34.28;;;7.80;99.90;;;;;;5033981;28;20037;-76
2023/11/12 09:58:57;;;;;;;42.40;39.28;;;7.70;99.90;;;;;;5029394;28;20095;-77
2023/11/12 10:01:24;;;;;;;39.15;36.42;;;7.70;99.90;;;;;;5016573;28;20052;-75
2023/11/12 10:03:51;;;;;;;37.55;35.13;;;7.70;99.90;;;;;;5025157;28;20045;-76
2023/11/12 10:06:20;;;;;;;39.22;36.63;;;7.70;99.90;;;;;;5032606;28;20037;-76
2023/11/12 10:08:49;;;;;;;40.17;37.38;;;7.70;99.90;;;;;;5016343;28;20076;-75
2023/11/12 10:11:21;;;;;;;35.78;33.50;;;7.80;99.90;;;;;;5034646;28;20049;-75
2023/11/12 10:13:51;;;;;;;38.85;36.25;;;7.80;99.90;;;;;;5027531;28;20041;-75
2023/11/12 10:16:31;;;;;;;39.42;36.58;;;7.90;99.90;;;;;;5033305;28;20037;-75
2023/11/12 10:19:13;;;;;;;39.50;36.47;;;7.90;99.90;;;;;;5018622;28;20904;-75
2023/11/12 10:21:56;;;;;;;39.60;37.00;;;7.90;99.90;;;;;;5024778;28;20127;-75
2023/11/12 10:24:28;;;;;;;41.00;38.20;;;7.90;99.90;;;;;;5031272;28;20045;-75
2023/11/12 10:27:05;;;;;;;41.55;38.40;;;8.00;99.90;;;;;;5029750;28;20053;-75
2023/11/12 10:29:32;;;;;;;156.27;79.65;;;8.10;99.90;;;;;;5018921;28;20048;-76
2023/11/12 10:31:59;;;;;;;45.95;42.13;;;8.10;99.90;;;;;;5015988;28;20075;-75
2023/11/12 10:34:27;;;;;;;40.75;37.95;;;8.10;99.90;;;;;;5028748;28;20033;-75
2023/11/12 10:37:05;;;;;;;39.65;37.10;;;8.10;99.90;;;;;;5026305;28;20701;-76
2023/11/12 10:39:46;;;;;;;41.97;38.78;;;8.20;99.90;;;;;;5049638;28;20679;-76
2023/11/12 10:42:26;;;;;;;42.03;39.22;;;8.20;99.90;;;;;;5050050;28;20090;-76
2023/11/12 10:44:58;;;;;;;39.38;36.45;;;8.40;99.90;;;;;;5032223;28;20538;-76
2023/11/12 10:47:27;;;;;;;38.35;35.75;;;8.40;99.90;;;;;;5033427;28;20507;-76
2023/11/12 10:49:54;;;;;;;39.72;37.13;;;8.50;99.90;;;;;;5029072;28;20656;-76
2023/11/12 10:52:23;;;;;;;38.97;36.60;;;8.50;99.90;;;;;;5034673;28;20049;-75
2023/11/12 10:54:51;;;;;;;37.97;35.58;;;8.50;99.90;;;;;;5034218;28;20045;-75
2023/11/12 10:57:23;;;;;;;35.05;32.90;;;8.60;99.90;;;;;;5011948;28;20051;-75
2023/11/12 10:59:52;;;;;;;38.00;35.47;;;8.60;99.90;;;;;;5035883;28;20037;-74
2023/11/12 11:02:28;;;;;;;36.38;33.78;;;8.60;99.90;;;;;;5030297;28;20122;-76
2023/11/12 11:04:56;;;;;;;36.08;33.00;;;8.70;99.90;;;;;;5031661;28;20051;-75
2023/11/12 11:07:23;;;;;;;34.60;32.20;;;8.80;99.90;;;;;;5012919;28;20041;-75
2023/11/12 11:09:51;;;;;;;37.60;34.92;;;8.70;99.90;;;;;;5028091;28;20038;-75
2023/11/12 11:12:19;;;;;;;32.80;30.17;;;8.70;99.90;;;;;;5033438;28;20051;-75
2023/11/12 11:14:46;;;;;;;30.88;28.70;;;8.80;99.90;;;;;;5010881;28;20052;-75
2023/11/12 11:17:37;;;;;;;31.33;29.13;;;8.80;99.90;;;;;;5026704;28;20516;-76
2023/11/12 11:20:05;;;;;;;33.08;30.95;;;8.90;99.90;;;;;;5033123;28;20133;-76
2023/11/12 11:22:32;;;;;;;35.50;33.00;;;8.90;99.90;;;;;;5025433;28;20110;-75
2023/11/12 11:25:24;;;;;;;33.40;31.02;;;8.90;99.90;;;;;;5029679;28;20147;-77
2023/11/12 11:28:18;;;;;;;34.47;32.17;;;9.10;99.90;;;;;;5025591;28;20204;-76
2023/11/12 11:31:09;;;;;;;32.47;30.33;;;9.10;99.90;;;;;;5025023;28;20084;-74
2023/11/12 11:33:47;;;;;;;32.67;30.73;;;9.10;99.90;;;;;;5030384;28;20558;-76
2023/11/12 11:36:20;;;;;;;33.35;31.27;;;9.00;99.90;;;;;;5030831;28;20244;-76
2023/11/12 11:39:12;;;;;;;32.47;30.30;;;8.90;99.90;;;;;;5026355;28;20105;-76
2023/11/12 11:41:42;;;;;;;30.63;28.65;;;8.90;99.90;;;;;;5048878;28;20368;-76
2023/11/12 11:44:31;;;;;;;30.38;28.38;;;8.90;99.90;;;;;;5023919;28;20153;-76
2023/11/12 11:47:10;;;;;;;32.25;30.40;;;8.90;99.90;;;;;;5026449;28;20056;-76
2023/11/12 11:49:38;;;;;;;32.13;30.23;;;8.90;99.90;;;;;;5032580;28;20048;-75
2023/11/12 11:52:08;;;;;;;32.35;30.40;;;8.90;99.90;;;;;;5027897;28;20108;-75
2023/11/12 11:54:38;;;;;;;33.78;31.52;;;8.90;99.90;;;;;;5027877;28;20041;-76
2023/11/12 11:57:05;;;;;;;35.45;32.83;;;8.90;99.90;;;;;;5026275;28;20037;-76
2023/11/12 11:59:36;;;;;;;32.80;30.65;;;9.00;99.90;;;;;;5028876;28;20041;-76
2023/11/12 12:02:06;;;;;;;32.95;30.95;;;8.90;99.90;;;;;;5028785;28;20057;-75
2023/11/12 12:04:33;;;;;;;31.90;30.10;;;9.10;99.90;;;;;;5027410;28;20059;-76
2023/11/12 12:07:00;;;;;;;33.50;31.50;;;9.10;99.90;;;;;;5025861;28;20041;-74
2023/11/12 12:09:27;;;;;;;36.38;33.65;;;9.10;99.90;;;;;;5027613;28;20047;-75
2023/11/12 12:11:55;;;;;;;32.75;30.42;;;9.10;99.90;;;;;;5025817;28;20148;-74
2023/11/12 12:14:24;;;;;;;33.75;31.33;;;9.20;99.90;;;;;;5043306;28;20530;-75
2023/11/12 12:16:51;;;;;;;35.05;33.05;;;9.30;99.90;;;;;;5009535;28;20119;-75
2023/11/12 12:19:25;;;;;;;35.70;33.60;;;9.40;99.90;;;;;;5032510;28;20041;-74
2023/11/12 12:21:52;;;;;;;33.55;31.70;;;9.40;99.90;;;;;;5009996;28;20060;-74
2023/11/12 12:24:22;;;;;;;35.35;33.17;;;9.30;99.90;;;;;;5026878;28;20045;-75
2023/11/12 12:26:50;;;;;;;34.42;32.25;;;9.30;99.90;;;;;;5034023;28;20386;-75
2023/11/12 12:29:20;;;;;;;35.42;33.38;;;9.30;99.90;;;;;;5026864;28;20065;-76
2023/11/12 12:31:48;;;;;;;34.15;32.33;;;9.30;99.90;;;;;;5028898;28;20045;-75
2023/11/12 12:34:24;;;;;;;33.03;31.15;;;9.20;99.90;;;;;;5011912;28;20487;-75
2023/11/12 12:37:03;;;;;;;34.70;32.78;;;9.30;99.90;;;;;;5020492;28;20045;-76
2023/11/12 12:39:46;;;;;;;34.78;32.88;;;9.30;99.90;;;;;;5024545;28;20124;-76
2023/11/12 12:42:14;;;;;;;35.10;32.88;;;9.30;99.90;;;;;;5015550;28;20038;-76